sensor_id;sensor_type;location;lat;lon;timestamp;P1;durP1;ratioP1;P2;durP2;ratioP2
20348;SDS011;10332;50.208;18.988;2024-03-17T00:00:27;6.75;;;3.63;;
20348;SDS011;10332;50.208;18.988;2024-03-17T00:03:14;6.22;;;3.97;;
20348;SDS011;10332;50.208;18.988;2024-03-17T00:05:40;7.40;;;4.20;;
20348;SDS011;10332;50.208;18.988;2024-03-17T00:08:06;6.78;;;4.15;;
20348;SDS011;10332;50.208;18.988;2024-03-17T00:10:34;5.63;;;4.10;;
20348;SDS011;10332;50.208;18.988;2024-03-17T00:13:00;8.70;;;3.90;;
20348;SDS011;10332;50.208;18.988;2024-03-17T00:15:26;7.00;;;3.90;;
20348;SDS011;10332;50.208;18.988;2024-03-17T00:17:54;4.75;;;3.83;;
20348;SDS011;10332;50.208;18.988;2024-03-17T00:20:20;5.05;;;3.33;;
20348;SDS011;10332;50.208;18.988;2024-03-17T00:22:47;6.68;;;3.90;;
20348;SDS011;10332;50.208;18.988;2024-03-17T00:25:15;6.07;;;3.85;;
20348;SDS011;10332;50.208;18.988;2024-03-17T00:27:41;5.35;;;3.78;;
20348;SDS011;10332;50.208;18.988;2024-03-17T00:30:10;6.50;;;4.13;;
20348;SDS011;10332;50.208;18.988;2024-03-17T00:32:41;5.65;;;3.70;;
20348;SDS011;10332;50.208;18.988;2024-03-17T00:35:08;4.18;;;3.25;;
20348;SDS011;10332;50.208;18.988;2024-03-17T00:37:36;6.70;;;3.92;;
20348;SDS011;10332;50.208;18.988;2024-03-17T00:40:03;8.32;;;4.03;;
20348;SDS011;10332;50.208;18.988;2024-03-17T00:42:31;5.40;;;3.40;;
20348;SDS011;10332;50.208;18.988;2024-03-17T00:44:58;5.30;;;3.50;;
20348;SDS011;10332;50.208;18.988;2024-03-17T00:47:26;4.90;;;3.20;;
20348;SDS011;10332;50.208;18.988;2024-03-17T00:49:52;5.68;;;3.83;;
20348;SDS011;10332;50.208;18.988;2024-03-17T00:52:18;5.82;;;3.70;;
20348;SDS011;10332;50.208;18.988;2024-03-17T00:54:46;5.70;;;3.17;;
20348;SDS011;10332;50.208;18.988;2024-03-17T00:57:14;5.28;;;3.55;;
20348;SDS011;10332;50.208;18.988;2024-03-17T00:59:41;7.03;;;3.85;;
20348;SDS011;10332;50.208;18.988;2024-03-17T01:02:14;6.35;;;4.10;;
20348;SDS011;10332;50.208;18.988;2024-03-17T01:04:42;7.10;;;3.60;;
20348;SDS011;10332;50.208;18.988;2024-03-17T01:07:09;8.60;;;3.67;;
20348;SDS011;10332;50.208;18.988;2024-03-17T01:09:36;6.60;;;3.65;;
20348;SDS011;10332;50.208;18.988;2024-03-17T01:12:03;6.53;;;3.92;;
20348;SDS011;10332;50.208;18.988;2024-03-17T01:14:29;6.35;;;3.53;;
20348;SDS011;10332;50.208;18.988;2024-03-17T01:16:56;4.82;;;3.10;;
20348;SDS011;10332;50.208;18.988;2024-03-17T01:19:24;5.75;;;3.67;;
20348;SDS011;10332;50.208;18.988;2024-03-17T01:21:51;7.35;;;3.70;;
20348;SDS011;10332;50.208;18.988;2024-03-17T01:24:18;5.55;;;3.38;;
20348;SDS011;10332;50.208;18.988;2024-03-17T01:26:44;7.47;;;3.92;;
20348;SDS011;10332;50.208;18.988;2024-03-17T01:29:11;9.38;;;3.90;;
20348;SDS011;10332;50.208;18.988;2024-03-17T01:31:37;6.90;;;3.70;;
20348;SDS011;10332;50.208;18.988;2024-03-17T01:34:03;9.65;;;4.15;;
20348;SDS011;10332;50.208;18.988;2024-03-17T01:36:30;8.13;;;4.65;;
20348;SDS011;10332;50.208;18.988;2024-03-17T01:38:56;7.65;;;4.20;;
20348;SDS011;10332;50.208;18.988;2024-03-17T01:41:22;6.75;;;3.60;;
20348;SDS011;10332;50.208;18.988;2024-03-17T01:43:49;6.93;;;3.75;;
20348;SDS011;10332;50.208;18.988;2024-03-17T01:46:15;7.30;;;4.10;;
20348;SDS011;10332;50.208;18.988;2024-03-17T01:48:43;8.02;;;4.60;;
20348;SDS011;10332;50.208;18.988;2024-03-17T01:51:11;7.38;;;4.07;;
20348;SDS011;10332;50.208;18.988;2024-03-17T01:53:40;6.90;;;4.45;;
20348;SDS011;10332;50.208;18.988;2024-03-17T01:56:09;7.07;;;4.47;;
20348;SDS011;10332;50.208;18.988;2024-03-17T01:58:36;9.35;;;4.75;;
20348;SDS011;10332;50.208;18.988;2024-03-17T02:01:03;8.07;;;3.97;;
20348;SDS011;10332;50.208;18.988;2024-03-17T02:03:30;7.85;;;4.43;;
20348;SDS011;10332;50.208;18.988;2024-03-17T02:05:58;8.20;;;3.97;;
20348;SDS011;10332;50.208;18.988;2024-03-17T02:08:24;8.10;;;4.30;;
20348;SDS011;10332;50.208;18.988;2024-03-17T02:10:54;7.07;;;4.10;;
20348;SDS011;10332;50.208;18.988;2024-03-17T02:13:21;7.45;;;4.07;;
20348;SDS011;10332;50.208;18.988;2024-03-17T02:15:48;7.65;;;3.67;;
20348;SDS011;10332;50.208;18.988;2024-03-17T02:18:14;7.63;;;4.07;;
20348;SDS011;10332;50.208;18.988;2024-03-17T02:20:40;5.65;;;3.80;;
20348;SDS011;10332;50.208;18.988;2024-03-17T02:23:25;7.53;;;4.18;;
20348;SDS011;10332;50.208;18.988;2024-03-17T02:25:52;6.80;;;4.32;;
20348;SDS011;10332;50.208;18.988;2024-03-17T02:28:19;9.50;;;4.60;;
20348;SDS011;10332;50.208;18.988;2024-03-17T02:30:45;11.23;;;4.65;;
20348;SDS011;10332;50.208;18.988;2024-03-17T02:33:12;8.68;;;4.60;;
20348;SDS011;10332;50.208;18.988;2024-03-17T02:35:38;8.20;;;4.35;;
20348;SDS011;10332;50.208;18.988;2024-03-17T02:38:04;13.57;;;4.82;;
20348;SDS011;10332;50.208;18.988;2024-03-17T02:40:33;6.93;;;4.38;;
20348;SDS011;10332;50.208;18.988;2024-03-17T02:43:00;7.00;;;4.20;;
20348;SDS011;10332;50.208;18.988;2024-03-17T02:45:26;9.70;;;4.30;;
20348;SDS011;10332;50.208;18.988;2024-03-17T02:47:52;9.40;;;4.38;;
20348;SDS011;10332;50.208;18.988;2024-03-17T02:50:18;6.97;;;4.03;;
20348;SDS011;10332;50.208;18.988;2024-03-17T02:52:45;7.97;;;4.50;;
20348;SDS011;10332;50.208;18.988;2024-03-17T02:55:11;7.28;;;4.53;;
20348;SDS011;10332;50.208;18.988;2024-03-17T02:57:37;7.57;;;4.40;;
20348;SDS011;10332;50.208;18.988;2024-03-17T03:00:04;10.18;;;4.20;;
20348;SDS011;10332;50.208;18.988;2024-03-17T03:02:34;9.90;;;4.22;;
20348;SDS011;10332;50.208;18.988;2024-03-17T03:05:00;10.18;;;4.43;;
20348;SDS011;10332;50.208;18.988;2024-03-17T03:07:26;7.40;;;4.10;;
20348;SDS011;10332;50.208;18.988;2024-03-17T03:09:53;11.13;;;4.28;;
20348;SDS011;10332;50.208;18.988;2024-03-17T03:12:19;7.68;;;4.40;;
20348;SDS011;10332;50.208;18.988;2024-03-17T03:14:46;10.10;;;4.00;;
20348;SDS011;10332;50.208;18.988;2024-03-17T03:17:12;10.15;;;4.40;;
20348;SDS011;10332;50.208;18.988;2024-03-17T03:19:39;7.97;;;4.47;;
20348;SDS011;10332;50.208;18.988;2024-03-17T03:22:05;12.90;;;4.10;;
20348;SDS011;10332;50.208;18.988;2024-03-17T03:24:32;8.73;;;3.65;;
20348;SDS011;10332;50.208;18.988;2024-03-17T03:26:58;8.80;;;4.45;;
20348;SDS011;10332;50.208;18.988;2024-03-17T03:29:24;8.43;;;3.75;;
20348;SDS011;10332;50.208;18.988;2024-03-17T03:31:50;10.45;;;4.20;;
20348;SDS011;10332;50.208;18.988;2024-03-17T03:34:17;11.38;;;4.60;;
20348;SDS011;10332;50.208;18.988;2024-03-17T03:36:43;9.65;;;4.70;;
20348;SDS011;10332;50.208;18.988;2024-03-17T03:39:09;10.10;;;4.90;;
20348;SDS011;10332;50.208;18.988;2024-03-17T03:41:37;10.00;;;5.30;;
20348;SDS011;10332;50.208;18.988;2024-03-17T03:44:04;14.07;;;6.20;;
20348;SDS011;10332;50.208;18.988;2024-03-17T03:46:30;13.65;;;5.82;;
20348;SDS011;10332;50.208;18.988;2024-03-17T03:48:57;10.60;;;4.90;;
20348;SDS011;10332;50.208;18.988;2024-03-17T03:51:23;9.52;;;3.95;;
20348;SDS011;10332;50.208;18.988;2024-03-17T03:53:50;8.25;;;3.60;;
20348;SDS011;10332;50.208;18.988;2024-03-17T03:56:17;6.72;;;3.42;;
20348;SDS011;10332;50.208;18.988;2024-03-17T03:58:43;12.23;;;4.03;;
20348;SDS011;10332;50.208;18.988;2024-03-17T04:01:11;7.10;;;3.03;;
20348;SDS011;10332;50.208;18.988;2024-03-17T04:03:38;9.45;;;3.55;;
20348;SDS011;10332;50.208;18.988;2024-03-17T04:06:05;8.55;;;2.70;;
20348;SDS011;10332;50.208;18.988;2024-03-17T04:08:39;9.60;;;3.38;;
20348;SDS011;10332;50.208;18.988;2024-03-17T04:11:08;9.10;;;2.92;;
20348;SDS011;10332;50.208;18.988;2024-03-17T04:13:35;8.00;;;2.50;;
20348;SDS011;10332;50.208;18.988;2024-03-17T04:16:05;9.18;;;3.60;;
20348;SDS011;10332;50.208;18.988;2024-03-17T04:18:33;7.93;;;2.70;;
20348;SDS011;10332;50.208;18.988;2024-03-17T04:21:04;7.90;;;3.33;;
20348;SDS011;10332;50.208;18.988;2024-03-17T04:23:32;6.22;;;2.65;;
20348;SDS011;10332;50.208;18.988;2024-03-17T04:25:59;7.70;;;2.90;;
20348;SDS011;10332;50.208;18.988;2024-03-17T04:28:27;5.05;;;2.70;;
20348;SDS011;10332;50.208;18.988;2024-03-17T04:31:01;4.68;;;2.60;;
20348;SDS011;10332;50.208;18.988;2024-03-17T04:33:30;9.98;;;3.15;;
20348;SDS011;10332;50.208;18.988;2024-03-17T04:35:57;8.32;;;3.28;;
20348;SDS011;10332;50.208;18.988;2024-03-17T04:38:23;10.43;;;2.92;;
20348;SDS011;10332;50.208;18.988;2024-03-17T04:40:50;7.72;;;3.42;;
20348;SDS011;10332;50.208;18.988;2024-03-17T04:43:17;7.68;;;2.67;;
20348;SDS011;10332;50.208;18.988;2024-03-17T04:45:46;10.20;;;3.47;;
20348;SDS011;10332;50.208;18.988;2024-03-17T04:48:13;10.55;;;3.15;;
20348;SDS011;10332;50.208;18.988;2024-03-17T04:50:39;12.07;;;3.80;;
20348;SDS011;10332;50.208;18.988;2024-03-17T04:53:06;9.88;;;3.80;;
20348;SDS011;10332;50.208;18.988;2024-03-17T04:55:32;9.32;;;3.60;;
20348;SDS011;10332;50.208;18.988;2024-03-17T04:57:58;9.88;;;4.43;;
20348;SDS011;10332;50.208;18.988;2024-03-17T05:00:25;11.75;;;4.30;;
20348;SDS011;10332;50.208;18.988;2024-03-17T05:02:52;11.40;;;4.35;;
20348;SDS011;10332;50.208;18.988;2024-03-17T05:05:19;7.55;;;4.07;;
20348;SDS011;10332;50.208;18.988;2024-03-17T05:07:45;10.52;;;4.38;;
20348;SDS011;10332;50.208;18.988;2024-03-17T05:10:12;7.93;;;4.22;;
20348;SDS011;10332;50.208;18.988;2024-03-17T05:12:38;10.75;;;4.90;;
20348;SDS011;10332;50.208;18.988;2024-03-17T05:15:04;14.15;;;5.55;;
20348;SDS011;10332;50.208;18.988;2024-03-17T05:17:31;12.73;;;5.63;;
20348;SDS011;10332;50.208;18.988;2024-03-17T05:19:57;13.15;;;5.53;;
20348;SDS011;10332;50.208;18.988;2024-03-17T05:22:24;12.90;;;5.25;;
20348;SDS011;10332;50.208;18.988;2024-03-17T05:24:50;8.90;;;5.15;;
20348;SDS011;10332;50.208;18.988;2024-03-17T05:27:17;15.27;;;5.45;;
20348;SDS011;10332;50.208;18.988;2024-03-17T05:29:43;13.82;;;5.45;;
20348;SDS011;10332;50.208;18.988;2024-03-17T05:32:09;11.23;;;5.28;;
20348;SDS011;10332;50.208;18.988;2024-03-17T05:34:37;11.25;;;4.95;;
20348;SDS011;10332;50.208;18.988;2024-03-17T05:37:03;8.10;;;3.90;;
20348;SDS011;10332;50.208;18.988;2024-03-17T05:39:30;11.45;;;4.22;;
20348;SDS011;10332;50.208;18.988;2024-03-17T05:41:56;7.47;;;3.13;;
20348;SDS011;10332;50.208;18.988;2024-03-17T05:44:22;7.88;;;3.35;;
20348;SDS011;10332;50.208;18.988;2024-03-17T05:46:49;8.13;;;3.40;;
20348;SDS011;10332;50.208;18.988;2024-03-17T05:49:18;13.02;;;4.25;;
20348;SDS011;10332;50.208;18.988;2024-03-17T05:51:45;8.73;;;2.95;;
20348;SDS011;10332;50.208;18.988;2024-03-17T05:54:11;8.65;;;3.72;;
20348;SDS011;10332;50.208;18.988;2024-03-17T05:56:37;7.22;;;3.50;;
20348;SDS011;10332;50.208;18.988;2024-03-17T05:59:04;10.15;;;3.90;;
20348;SDS011;10332;50.208;18.988;2024-03-17T06:01:31;7.95;;;3.78;;
20348;SDS011;10332;50.208;18.988;2024-03-17T06:03:57;10.07;;;3.97;;
20348;SDS011;10332;50.208;18.988;2024-03-17T06:06:25;10.07;;;4.30;;
20348;SDS011;10332;50.208;18.988;2024-03-17T06:08:51;7.90;;;3.72;;
20348;SDS011;10332;50.208;18.988;2024-03-17T06:11:18;12.82;;;3.92;;
20348;SDS011;10332;50.208;18.988;2024-03-17T06:13:44;12.20;;;4.20;;
20348;SDS011;10332;50.208;18.988;2024-03-17T06:16:10;11.75;;;4.00;;
20348;SDS011;10332;50.208;18.988;2024-03-17T06:18:36;11.65;;;5.15;;
20348;SDS011;10332;50.208;18.988;2024-03-17T06:21:04;15.68;;;4.85;;
20348;SDS011;10332;50.208;18.988;2024-03-17T06:23:31;10.10;;;4.28;;
20348;SDS011;10332;50.208;18.988;2024-03-17T06:25:57;11.73;;;4.32;;
20348;SDS011;10332;50.208;18.988;2024-03-17T06:28:25;12.32;;;3.63;;
20348;SDS011;10332;50.208;18.988;2024-03-17T06:30:56;10.80;;;4.47;;
20348;SDS011;10332;50.208;18.988;2024-03-17T06:33:29;11.88;;;3.92;;
20348;SDS011;10332;50.208;18.988;2024-03-17T06:35:58;7.43;;;4.40;;
20348;SDS011;10332;50.208;18.988;2024-03-17T06:38:30;9.82;;;4.28;;
20348;SDS011;10332;50.208;18.988;2024-03-17T06:40:57;11.73;;;4.65;;
20348;SDS011;10332;50.208;18.988;2024-03-17T06:43:23;10.38;;;4.05;;
20348;SDS011;10332;50.208;18.988;2024-03-17T06:45:59;11.35;;;4.30;;
20348;SDS011;10332;50.208;18.988;2024-03-17T06:48:27;8.75;;;3.28;;
20348;SDS011;10332;50.208;18.988;2024-03-17T06:50:54;10.82;;;4.13;;
20348;SDS011;10332;50.208;18.988;2024-03-17T06:53:21;7.60;;;3.90;;
20348;SDS011;10332;50.208;18.988;2024-03-17T06:55:55;9.20;;;3.97;;
20348;SDS011;10332;50.208;18.988;2024-03-17T06:58:22;8.00;;;2.95;;
20348;SDS011;10332;50.208;18.988;2024-03-17T07:00:53;11.02;;;3.33;;
20348;SDS011;10332;50.208;18.988;2024-03-17T07:03:22;10.63;;;3.90;;
20348;SDS011;10332;50.208;18.988;2024-03-17T07:05:53;8.32;;;3.63;;
20348;SDS011;10332;50.208;18.988;2024-03-17T07:08:24;9.10;;;3.20;;
20348;SDS011;10332;50.208;18.988;2024-03-17T07:10:58;10.48;;;3.13;;
20348;SDS011;10332;50.208;18.988;2024-03-17T07:13:29;8.07;;;3.47;;
20348;SDS011;10332;50.208;18.988;2024-03-17T07:15:57;10.23;;;3.22;;
20348;SDS011;10332;50.208;18.988;2024-03-17T07:18:24;6.53;;;3.03;;
20348;SDS011;10332;50.208;18.988;2024-03-17T07:20:52;8.73;;;3.40;;
20348;SDS011;10332;50.208;18.988;2024-03-17T07:23:18;8.48;;;2.78;;
20348;SDS011;10332;50.208;18.988;2024-03-17T07:25:54;5.90;;;2.40;;
20348;SDS011;10332;50.208;18.988;2024-03-17T07:28:21;5.95;;;2.85;;
20348;SDS011;10332;50.208;18.988;2024-03-17T07:30:49;8.50;;;3.17;;
20348;SDS011;10332;50.208;18.988;2024-03-17T07:33:19;7.35;;;2.80;;
20348;SDS011;10332;50.208;18.988;2024-03-17T07:35:47;7.97;;;2.70;;
20348;SDS011;10332;50.208;18.988;2024-03-17T07:38:17;8.00;;;3.10;;
20348;SDS011;10332;50.208;18.988;2024-03-17T07:40:45;7.95;;;2.53;;
20348;SDS011;10332;50.208;18.988;2024-03-17T07:43:25;6.38;;;2.55;;
20348;SDS011;10332;50.208;18.988;2024-03-17T07:45:58;6.00;;;2.25;;
20348;SDS011;10332;50.208;18.988;2024-03-17T07:48:25;5.13;;;2.08;;
20348;SDS011;10332;50.208;18.988;2024-03-17T07:51:11;5.95;;;2.05;;
20348;SDS011;10332;50.208;18.988;2024-03-17T07:53:39;7.72;;;2.10;;
20348;SDS011;10332;50.208;18.988;2024-03-17T07:56:11;5.25;;;2.20;;
20348;SDS011;10332;50.208;18.988;2024-03-17T07:58:39;6.00;;;2.63;;
20348;SDS011;10332;50.208;18.988;2024-03-17T08:01:07;3.70;;;1.92;;
20348;SDS011;10332;50.208;18.988;2024-03-17T08:03:38;6.00;;;2.38;;
20348;SDS011;10332;50.208;18.988;2024-03-17T08:06:06;4.78;;;2.03;;
20348;SDS011;10332;50.208;18.988;2024-03-17T08:08:34;7.75;;;2.20;;
20348;SDS011;10332;50.208;18.988;2024-03-17T08:11:01;3.38;;;1.70;;
20348;SDS011;10332;50.208;18.988;2024-03-17T08:13:30;5.47;;;2.20;;
20348;SDS011;10332;50.208;18.988;2024-03-17T08:16:02;6.82;;;2.00;;
20348;SDS011;10332;50.208;18.988;2024-03-17T08:18:31;4.80;;;2.17;;
20348;SDS011;10332;50.208;18.988;2024-03-17T08:21:01;3.70;;;2.45;;
20348;SDS011;10332;50.208;18.988;2024-03-17T08:23:29;7.40;;;2.40;;
20348;SDS011;10332;50.208;18.988;2024-03-17T08:25:56;3.58;;;1.85;;
20348;SDS011;10332;50.208;18.988;2024-03-17T08:28:24;3.42;;;1.95;;
20348;SDS011;10332;50.208;18.988;2024-03-17T08:30:52;4.05;;;2.13;;
20348;SDS011;10332;50.208;18.988;2024-03-17T08:33:19;5.97;;;2.25;;
20348;SDS011;10332;50.208;18.988;2024-03-17T08:38:20;4.88;;;2.03;;
20348;SDS011;10332;50.208;18.988;2024-03-17T08:40:49;5.22;;;2.20;;
20348;SDS011;10332;50.208;18.988;2024-03-17T08:43:19;2.67;;;1.60;;
20348;SDS011;10332;50.208;18.988;2024-03-17T08:45:57;6.88;;;1.83;;
20348;SDS011;10332;50.208;18.988;2024-03-17T08:48:31;5.30;;;1.75;;
20348;SDS011;10332;50.208;18.988;2024-03-17T08:50:59;3.60;;;1.40;;
20348;SDS011;10332;50.208;18.988;2024-03-17T08:53:27;2.92;;;1.63;;
20348;SDS011;10332;50.208;18.988;2024-03-17T08:55:54;6.22;;;1.90;;
20348;SDS011;10332;50.208;18.988;2024-03-17T08:58:21;2.65;;;1.27;;
20348;SDS011;10332;50.208;18.988;2024-03-17T09:00:48;3.95;;;1.40;;
20348;SDS011;10332;50.208;18.988;2024-03-17T09:03:15;5.18;;;1.73;;
20348;SDS011;10332;50.208;18.988;2024-03-17T09:05:43;2.85;;;1.27;;
20348;SDS011;10332;50.208;18.988;2024-03-17T09:08:14;4.20;;;1.35;;
20348;SDS011;10332;50.208;18.988;2024-03-17T09:10:48;5.38;;;1.90;;
20348;SDS011;10332;50.208;18.988;2024-03-17T09:13:16;4.53;;;1.73;;
20348;SDS011;10332;50.208;18.988;2024-03-17T09:15:56;6.03;;;2.30;;
20348;SDS011;10332;50.208;18.988;2024-03-17T09:18:34;4.32;;;1.58;;
20348;SDS011;10332;50.208;18.988;2024-03-17T09:21:01;6.63;;;1.95;;
20348;SDS011;10332;50.208;18.988;2024-03-17T09:23:29;13.02;;;6.95;;
20348;SDS011;10332;50.208;18.988;2024-03-17T09:26:06;11.13;;;7.05;;
20348;SDS011;10332;50.208;18.988;2024-03-17T09:28:34;8.77;;;2.85;;
20348;SDS011;10332;50.208;18.988;2024-03-17T09:31:01;9.50;;;5.18;;
20348;SDS011;10332;50.208;18.988;2024-03-17T09:33:29;6.93;;;2.35;;
20348;SDS011;10332;50.208;18.988;2024-03-17T09:36:00;3.22;;;1.58;;
20348;SDS011;10332;50.208;18.988;2024-03-17T09:38:28;6.05;;;2.30;;
20348;SDS011;10332;50.208;18.988;2024-03-17T09:40:54;3.80;;;1.50;;
20348;SDS011;10332;50.208;18.988;2024-03-17T09:43:26;4.60;;;1.73;;
20348;SDS011;10332;50.208;18.988;2024-03-17T09:45:54;2.80;;;1.33;;
20348;SDS011;10332;50.208;18.988;2024-03-17T09:48:23;3.35;;;1.38;;
20348;SDS011;10332;50.208;18.988;2024-03-17T09:50:51;4.13;;;1.50;;
20348;SDS011;10332;50.208;18.988;2024-03-17T09:53:52;9.13;;;4.93;;
20348;SDS011;10332;50.208;18.988;2024-03-17T09:56:13;9.35;;;5.82;;
20348;SDS011;10332;50.208;18.988;2024-03-17T09:58:49;5.40;;;2.80;;
20348;SDS011;10332;50.208;18.988;2024-03-17T10:01:17;3.40;;;1.52;;
20348;SDS011;10332;50.208;18.988;2024-03-17T10:03:47;2.35;;;1.17;;
20348;SDS011;10332;50.208;18.988;2024-03-17T10:06:18;4.55;;;1.60;;
20348;SDS011;10332;50.208;18.988;2024-03-17T10:08:45;4.43;;;1.73;;
20348;SDS011;10332;50.208;18.988;2024-03-17T10:11:20;5.18;;;1.80;;
20348;SDS011;10332;50.208;18.988;2024-03-17T10:13:58;3.75;;;1.48;;
20348;SDS011;10332;50.208;18.988;2024-03-17T10:16:26;2.30;;;1.15;;
20348;SDS011;10332;50.208;18.988;2024-03-17T10:19:16;3.40;;;1.45;;
20348;SDS011;10332;50.208;18.988;2024-03-17T10:21:50;3.03;;;1.52;;
20348;SDS011;10332;50.208;18.988;2024-03-17T10:24:26;3.35;;;1.27;;
20348;SDS011;10332;50.208;18.988;2024-03-17T10:31:54;20.08;;;12.60;;
20348;SDS011;10332;50.208;18.988;2024-03-17T10:34:22;7.30;;;2.60;;
20348;SDS011;10332;50.208;18.988;2024-03-17T10:36:52;3.50;;;1.75;;
20348;SDS011;10332;50.208;18.988;2024-03-17T10:39:41;3.83;;;1.40;;
20348;SDS011;10332;50.208;18.988;2024-03-17T10:42:12;4.00;;;1.40;;
20348;SDS011;10332;50.208;18.988;2024-03-17T10:44:43;5.00;;;1.95;;
20348;SDS011;10332;50.208;18.988;2024-03-17T10:47:30;4.20;;;1.65;;
20348;SDS011;10332;50.208;18.988;2024-03-17T10:49:57;4.13;;;1.50;;
20348;SDS011;10332;50.208;18.988;2024-03-17T10:52:29;2.72;;;1.30;;
20348;SDS011;10332;50.208;18.988;2024-03-17T10:54:59;7.40;;;4.80;;
20348;SDS011;10332;50.208;18.988;2024-03-17T10:57:32;23.75;;;20.52;;
20348;SDS011;10332;50.208;18.988;2024-03-17T11:00:00;3.92;;;2.00;;
20348;SDS011;10332;50.208;18.988;2024-03-17T11:02:34;3.80;;;1.67;;
20348;SDS011;10332;50.208;18.988;2024-03-17T11:05:02;4.55;;;1.20;;
20348;SDS011;10332;50.208;18.988;2024-03-17T11:07:49;3.25;;;1.10;;
20348;SDS011;10332;50.208;18.988;2024-03-17T11:10:23;2.97;;;1.40;;
20348;SDS011;10332;50.208;18.988;2024-03-17T11:12:55;4.43;;;1.70;;
20348;SDS011;10332;50.208;18.988;2024-03-17T11:17:54;3.63;;;1.40;;
20348;SDS011;10332;50.208;18.988;2024-03-17T11:21:05;3.70;;;1.90;;
20348;SDS011;10332;50.208;18.988;2024-03-17T11:23:56;3.38;;;1.83;;
20348;SDS011;10332;50.208;18.988;2024-03-17T11:26:28;3.55;;;1.30;;
20348;SDS011;10332;50.208;18.988;2024-03-17T11:28:56;2.47;;;1.50;;
20348;SDS011;10332;50.208;18.988;2024-03-17T11:34:27;3.60;;;1.25;;
20348;SDS011;10332;50.208;18.988;2024-03-17T11:37:05;4.53;;;1.75;;
20348;SDS011;10332;50.208;18.988;2024-03-17T11:39:51;4.15;;;1.60;;
20348;SDS011;10332;50.208;18.988;2024-03-17T11:42:21;3.00;;;1.55;;
20348;SDS011;10332;50.208;18.988;2024-03-17T11:44:56;3.92;;;1.55;;
20348;SDS011;10332;50.208;18.988;2024-03-17T11:47:41;2.40;;;1.50;;
20348;SDS011;10332;50.208;18.988;2024-03-17T11:50:09;5.22;;;2.33;;
20348;SDS011;10332;50.208;18.988;2024-03-17T11:52:36;2.85;;;1.35;;
20348;SDS011;10332;50.208;18.988;2024-03-17T11:55:04;3.47;;;1.27;;
20348;SDS011;10332;50.208;18.988;2024-03-17T11:57:31;4.75;;;1.55;;
20348;SDS011;10332;50.208;18.988;2024-03-17T11:59:57;5.38;;;2.10;;
20348;SDS011;10332;50.208;18.988;2024-03-17T12:02:24;4.35;;;2.63;;
20348;SDS011;10332;50.208;18.988;2024-03-17T12:04:59;5.57;;;2.03;;
20348;SDS011;10332;50.208;18.988;2024-03-17T12:07:26;2.33;;;1.50;;
20348;SDS011;10332;50.208;18.988;2024-03-17T12:09:55;4.63;;;2.03;;
20348;SDS011;10332;50.208;18.988;2024-03-17T12:12:24;4.32;;;1.75;;
20348;SDS011;10332;50.208;18.988;2024-03-17T12:14:57;6.00;;;2.30;;
20348;SDS011;10332;50.208;18.988;2024-03-17T12:17:24;3.65;;;1.58;;
20348;SDS011;10332;50.208;18.988;2024-03-17T12:19:51;7.05;;;3.10;;
20348;SDS011;10332;50.208;18.988;2024-03-17T12:22:18;9.23;;;4.28;;
20348;SDS011;10332;50.208;18.988;2024-03-17T12:24:51;5.15;;;2.22;;
20348;SDS011;10332;50.208;18.988;2024-03-17T12:27:25;4.93;;;2.10;;
20348;SDS011;10332;50.208;18.988;2024-03-17T12:29:52;5.70;;;2.92;;
20348;SDS011;10332;50.208;18.988;2024-03-17T12:32:20;5.32;;;2.13;;
20348;SDS011;10332;50.208;18.988;2024-03-17T12:34:55;5.72;;;2.15;;
20348;SDS011;10332;50.208;18.988;2024-03-17T12:37:26;3.58;;;1.58;;
20348;SDS011;10332;50.208;18.988;2024-03-17T12:39:59;3.67;;;1.60;;
20348;SDS011;10332;50.208;18.988;2024-03-17T12:42:27;4.25;;;1.52;;
20348;SDS011;10332;50.208;18.988;2024-03-17T12:45:00;4.32;;;1.63;;
20348;SDS011;10332;50.208;18.988;2024-03-17T12:47:27;4.85;;;2.00;;
20348;SDS011;10332;50.208;18.988;2024-03-17T12:49:56;4.28;;;1.40;;
20348;SDS011;10332;50.208;18.988;2024-03-17T12:52:29;3.58;;;1.77;;
20348;SDS011;10332;50.208;18.988;2024-03-17T12:54:57;4.28;;;1.42;;
20348;SDS011;10332;50.208;18.988;2024-03-17T12:57:42;5.18;;;1.70;;
20348;SDS011;10332;50.208;18.988;2024-03-17T13:00:28;2.72;;;1.10;;
20348;SDS011;10332;50.208;18.988;2024-03-17T13:02:57;2.90;;;1.27;;
20348;SDS011;10332;50.208;18.988;2024-03-17T13:05:24;4.13;;;1.45;;
20348;SDS011;10332;50.208;18.988;2024-03-17T13:07:50;3.53;;;1.50;;
20348;SDS011;10332;50.208;18.988;2024-03-17T13:10:26;4.10;;;1.33;;
20348;SDS011;10332;50.208;18.988;2024-03-17T13:13:00;2.30;;;1.42;;
20348;SDS011;10332;50.208;18.988;2024-03-17T13:15:28;2.65;;;1.45;;
20348;SDS011;10332;50.208;18.988;2024-03-17T13:17:58;3.55;;;1.65;;
20348;SDS011;10332;50.208;18.988;2024-03-17T13:20:25;3.33;;;1.42;;
20348;SDS011;10332;50.208;18.988;2024-03-17T13:22:52;5.25;;;1.60;;
20348;SDS011;10332;50.208;18.988;2024-03-17T13:25:19;3.08;;;1.35;;
20348;SDS011;10332;50.208;18.988;2024-03-17T13:27:55;3.40;;;1.55;;
20348;SDS011;10332;50.208;18.988;2024-03-17T13:30:22;3.55;;;1.90;;
20348;SDS011;10332;50.208;18.988;2024-03-17T13:32:50;4.00;;;1.52;;
20348;SDS011;10332;50.208;18.988;2024-03-17T13:35:22;3.40;;;1.42;;
20348;SDS011;10332;50.208;18.988;2024-03-17T13:37:49;2.40;;;1.17;;
20348;SDS011;10332;50.208;18.988;2024-03-17T13:40:20;4.10;;;2.10;;
20348;SDS011;10332;50.208;18.988;2024-03-17T13:42:48;6.88;;;5.82;;
20348;SDS011;10332;50.208;18.988;2024-03-17T13:45:16;14.45;;;12.95;;
20348;SDS011;10332;50.208;18.988;2024-03-17T13:47:46;1.70;;;1.00;;
20348;SDS011;10332;50.208;18.988;2024-03-17T13:50:15;3.22;;;1.60;;
20348;SDS011;10332;50.208;18.988;2024-03-17T13:52:42;2.20;;;1.55;;
20348;SDS011;10332;50.208;18.988;2024-03-17T13:55:13;3.72;;;2.38;;
20348;SDS011;10332;50.208;18.988;2024-03-17T13:57:50;4.22;;;1.67;;
20348;SDS011;10332;50.208;18.988;2024-03-17T14:00:20;2.75;;;1.52;;
20348;SDS011;10332;50.208;18.988;2024-03-17T14:02:47;4.13;;;1.40;;
20348;SDS011;10332;50.208;18.988;2024-03-17T14:05:16;4.65;;;1.88;;
20348;SDS011;10332;50.208;18.988;2024-03-17T14:07:43;4.85;;;2.10;;
20348;SDS011;10332;50.208;18.988;2024-03-17T14:10:12;2.78;;;1.35;;
20348;SDS011;10332;50.208;18.988;2024-03-17T14:12:39;4.40;;;2.00;;
20348;SDS011;10332;50.208;18.988;2024-03-17T14:15:07;3.28;;;1.58;;
20348;SDS011;10332;50.208;18.988;2024-03-17T14:17:39;3.83;;;2.17;;
20348;SDS011;10332;50.208;18.988;2024-03-17T14:20:07;3.58;;;2.15;;
20348;SDS011;10332;50.208;18.988;2024-03-17T14:22:38;3.13;;;1.60;;
20348;SDS011;10332;50.208;18.988;2024-03-17T14:25:06;3.83;;;1.90;;
20348;SDS011;10332;50.208;18.988;2024-03-17T14:27:36;3.22;;;2.03;;
20348;SDS011;10332;50.208;18.988;2024-03-17T14:30:03;3.15;;;1.67;;
20348;SDS011;10332;50.208;18.988;2024-03-17T14:32:30;2.95;;;1.50;;
20348;SDS011;10332;50.208;18.988;2024-03-17T14:34:56;2.95;;;1.77;;
20348;SDS011;10332;50.208;18.988;2024-03-17T14:37:23;2.33;;;1.55;;
20348;SDS011;10332;50.208;18.988;2024-03-17T14:39:52;3.78;;;1.67;;
20348;SDS011;10332;50.208;18.988;2024-03-17T14:42:20;3.10;;;1.60;;
20348;SDS011;10332;50.208;18.988;2024-03-17T14:44:46;2.30;;;1.60;;
20348;SDS011;10332;50.208;18.988;2024-03-17T14:47:13;4.20;;;1.90;;
20348;SDS011;10332;50.208;18.988;2024-03-17T14:49:40;3.42;;;1.65;;
20348;SDS011;10332;50.208;18.988;2024-03-17T14:52:07;2.78;;;1.40;;
20348;SDS011;10332;50.208;18.988;2024-03-17T14:54:35;5.65;;;2.10;;
20348;SDS011;10332;50.208;18.988;2024-03-17T14:57:01;3.13;;;1.73;;